Time;durP1;ratioP1;P1;durP2;ratioP2;P2;SDS_P1;SDS_P2;PMS_P1;PMS_P2;Temp;Humidity;BMP_temperature;BMP_pressure;BME280_temperature;BME280_humidity;BME280_pressure;Samples;Min_cycle;Max_cycle;Signal;HPM_P1;HPM_P2
2023/10/27 00:00:05;;;;;;;37.55;18.55;;;;;;;;;;2530874;23;20014;-76
2023/10/27 00:01:26;;;;;;;43.28;17.27;;;;;;;;;;2531971;23;20036;-77
2023/10/27 00:02:47;;;;;;;40.13;19.55;;;;;;;;;;2532045;23;20025;-78
2023/10/27 00:04:08;;;;;;;38.08;18.77;;;;;;;;;;2529973;23;20005;-77
2023/10/27 00:05:30;;;;;;;39.72;17.90;;;;;;;;;;2533215;23;20010;-77
2023/10/27 00:06:51;;;;;;;37.83;17.33;;;;;;;;;;2530715;23;20037;-77
2023/10/27 00:08:13;;;;;;;35.75;17.55;;;;;;;;;;2532892;23;20012;-77
2023/10/27 00:09:37;;;;;;;32.58;17.75;;;;;;;;;;2518283;23;20424;-78
2023/10/27 00:11:01;;;;;;;35.35;18.92;;;;;;;;;;2527088;23;20376;-77
2023/10/27 00:12:22;;;;;;;37.13;18.75;;;;;;;;;;2531290;23;20042;-76
2023/10/27 00:13:43;;;;;;;37.92;18.27;;;;;;;;;;2532927;23;20034;-76
2023/10/27 00:15:04;;;;;;;34.95;18.63;;;;;;;;;;2519168;23;20360;-77
2023/10/27 00:16:25;;;;;;;35.53;17.80;;;;;;;;;;2517195;23;20060;-77
2023/10/27 00:17:46;;;;;;;37.00;17.90;;;;;;;;;;2516251;23;20487;-74
2023/10/27 00:19:07;;;;;;;40.70;18.98;;;;;;;;;;2528817;23;20021;-74
2023/10/27 00:20:29;;;;;;;33.83;18.50;;;;;;;;;;2534176;23;20017;-75
2023/10/27 00:21:50;;;;;;;34.40;18.30;;;;;;;;;;2531871;23;20014;-75
2023/10/27 00:23:11;;;;;;;35.60;17.80;;;;;;;;;;2533466;23;20006;-73
2023/10/27 00:24:32;;;;;;;40.03;19.38;;;;;;;;;;2533181;23;20010;-74
2023/10/27 00:25:52;;;;;;;36.85;19.00;;;;;;;;;;2518727;23;20007;-75
2023/10/27 00:27:13;;;;;;;36.17;17.70;;;;;;;;;;2528217;23;20351;-74
2023/10/27 00:28:34;;;;;;;34.22;17.15;;;;;;;;;;2534133;23;20013;-74
2023/10/27 00:29:55;;;;;;;43.50;19.73;;;;;;;;;;2532497;23;20013;-77
2023/10/27 00:31:16;;;;;;;40.35;17.83;;;;;;;;;;2530922;23;20016;-76
2023/10/27 00:32:37;;;;;;;38.80;18.10;;;;;;;;;;2533057;23;20020;-78
2023/10/27 00:33:58;;;;;;;37.22;19.48;;;;;;;;;;2533234;23;20037;-78
2023/10/27 00:35:19;;;;;;;33.50;17.65;;;;;;;;;;2522836;23;20011;-73
2023/10/27 00:36:40;;;;;;;35.22;16.50;;;;;;;;;;2527942;23;20025;-74
2023/10/27 00:38:01;;;;;;;34.63;17.27;;;;;;;;;;2521175;23;20010;-74
2023/10/27 00:39:22;;;;;;;36.80;17.73;;;;;;;;;;2516226;23;20025;-75
2023/10/27 00:40:42;;;;;;;34.53;17.13;;;;;;;;;;2528037;23;20010;-74
2023/10/27 00:42:03;;;;;;;35.08;17.98;;;;;;;;;;2517808;23;20496;-74
2023/10/27 00:43:24;;;;;;;38.58;16.65;;;;;;;;;;2516735;23;20423;-74
2023/10/27 00:44:45;;;;;;;35.80;18.25;;;;;;;;;;2521238;23;20014;-76
2023/10/27 00:46:06;;;;;;;36.80;19.40;;;;;;;;;;2518779;23;20015;-76
2023/10/27 00:47:28;;;;;;;39.10;18.95;;;;;;;;;;2525397;23;20010;-76
2023/10/27 00:48:49;;;;;;;;;;;;;;;;;;2522580;23;20011;-75
2023/10/27 00:50:10;;;;;;;37.30;17.38;;;;;;;;;;2527138;23;19901;-78
2023/10/27 00:51:31;;;;;;;28.92;16.80;;;;;;;;;;2531690;23;20060;-77
2023/10/27 00:52:53;;;;;;;39.30;18.85;;;;;;;;;;2531072;23;20010;-78
2023/10/27 00:54:16;;;;;;;38.30;19.02;;;;;;;;;;2530427;23;20024;-78
2023/10/27 00:55:39;;;;;;;38.97;17.48;;;;;;;;;;2521266;23;20022;-77
2023/10/27 00:57:00;;;;;;;37.63;18.10;;;;;;;;;;2526772;23;20022;-77
2023/10/27 00:58:22;;;;;;;36.28;18.00;;;;;;;;;;2520720;23;20037;-77
2023/10/27 00:59:44;;;;;;;38.20;17.58;;;;;;;;;;2517961;23;20014;-75
2023/10/27 01:01:07;;;;;;;39.17;18.02;;;;;;;;;;2529224;23;20436;-77
2023/10/27 01:02:27;;;;;;;37.25;18.65;;;;;;;;;;2522501;23;20441;-78
2023/10/27 01:03:49;;;;;;;36.53;18.58;;;;;;;;;;2527643;23;20033;-77
2023/10/27 01:05:10;;;;;;;34.58;16.85;;;;;;;;;;2531467;23;20348;-78
2023/10/27 01:06:31;;;;;;;30.58;16.70;;;;;;;;;;2518068;23;20022;-78
2023/10/27 01:07:51;;;;;;;37.83;17.90;;;;;;;;;;2515344;23;20010;-78
2023/10/27 01:09:13;;;;;;;35.95;18.88;;;;;;;;;;2511714;23;20018;-78
2023/10/27 01:10:34;;;;;;;37.15;18.48;;;;;;;;;;2526605;23;20010;-76
2023/10/27 01:11:55;;;;;;;40.63;18.63;;;;;;;;;;2530876;23;20017;-76
2023/10/27 01:13:16;;;;;;;35.00;17.30;;;;;;;;;;2531262;23;20025;-76
2023/10/27 01:14:37;;;;;;;37.78;18.08;;;;;;;;;;2530103;23;20021;-76
2023/10/27 01:15:58;;;;;;;35.22;17.17;;;;;;;;;;2529673;23;20329;-75
2023/10/27 01:17:18;;;;;;;34.90;16.50;;;;;;;;;;2518356;23;20022;-77
2023/10/27 01:18:39;;;;;;;36.95;18.05;;;;;;;;;;2517105;23;20014;-75
2023/10/27 01:20:00;;;;;;;35.55;18.02;;;;;;;;;;2525691;23;20702;-77
2023/10/27 01:21:21;;;;;;;36.15;17.30;;;;;;;;;;2531346;23;20025;-77
2023/10/27 01:22:44;;;;;;;33.45;17.13;;;;;;;;;;2530905;23;20010;-78
2023/10/27 01:24:05;;;;;;;37.78;17.65;;;;;;;;;;2531869;23;20049;-78
2023/10/27 01:25:26;;;;;;;39.35;17.45;;;;;;;;;;2531234;23;20474;-76
2023/10/27 01:26:47;;;;;;;33.25;17.52;;;;;;;;;;2531104;23;20014;-77
2023/10/27 01:28:09;;;;;;;35.97;17.30;;;;;;;;;;2532359;23;20014;-76
2023/10/27 01:29:30;;;;;;;38.00;17.05;;;;;;;;;;2531758;23;20006;-78
2023/10/27 01:30:51;;;;;;;35.22;16.33;;;;;;;;;;2520986;23;20014;-76
2023/10/27 01:32:12;;;;;;;35.90;17.60;;;;;;;;;;2513769;23;20019;-75
2023/10/27 01:33:34;;;;;;;37.80;17.30;;;;;;;;;;2528559;23;20013;-75
2023/10/27 01:34:56;;;;;;;;;;;;;;;;;;2534851;23;20006;-77
2023/10/27 01:36:17;;;;;;;31.55;15.88;;;;;;;;;;2530643;23;19932;-78
2023/10/27 01:37:38;;;;;;;37.40;17.23;;;;;;;;;;2531554;23;20018;-78
2023/10/27 01:38:58;;;;;;;31.75;16.67;;;;;;;;;;2517585;23;20015;-79
2023/10/27 01:40:19;;;;;;;31.48;15.57;;;;;;;;;;2514275;23;20417;-79
2023/10/27 01:41:40;;;;;;;33.22;16.05;;;;;;;;;;2519122;23;20010;-77
2023/10/27 01:43:01;;;;;;;32.38;17.83;;;;;;;;;;2526294;23;20021;-77
2023/10/27 01:44:22;;;;;;;34.58;17.05;;;;;;;;;;2530205;23;20470;-77
2023/10/27 01:45:43;;;;;;;39.95;17.27;;;;;;;;;;2530595;23;20013;-77
2023/10/27 01:47:04;;;;;;;32.60;15.05;;;;;;;;;;2529735;23;20014;-77
2023/10/27 01:48:25;;;;;;;31.48;16.27;;;;;;;;;;2530061;23;20010;-79
2023/10/27 01:49:46;;;;;;;37.22;16.38;;;;;;;;;;2531536;23;20017;-78
2023/10/27 01:51:07;;;;;;;27.95;15.60;;;;;;;;;;2530074;23;20017;-77
2023/10/27 01:52:27;;;;;;;36.42;16.50;;;;;;;;;;2529580;23;20037;-77
2023/10/27 01:53:48;;;;;;;32.30;15.93;;;;;;;;;;2528895;23;20368;-77
2023/10/27 01:55:09;;;;;;;32.15;15.60;;;;;;;;;;2530600;23;20010;-77
2023/10/27 01:56:33;;;;;;;29.13;15.38;;;;;;;;;;2530190;23;20085;-79
2023/10/27 01:57:54;;;;;;;30.40;15.82;;;;;;;;;;2529565;23;20013;-77
2023/10/27 01:59:15;;;;;;;35.75;14.75;;;;;;;;;;2531068;23;20452;-77
2023/10/27 02:00:37;;;;;;;29.75;15.43;;;;;;;;;;2532006;23;20448;-77
2023/10/27 02:01:58;;;;;;;34.35;14.60;;;;;;;;;;2531399;23;20017;-76
2023/10/27 02:03:19;;;;;;;31.73;14.98;;;;;;;;;;2530565;23;20017;-75
2023/10/27 02:04:39;;;;;;;31.98;16.00;;;;;;;;;;2531792;23;20013;-75
2023/10/27 02:06:00;;;;;;;29.08;14.98;;;;;;;;;;2531452;23;20472;-79
2023/10/27 02:07:24;;;;;;;28.10;15.63;;;;;;;;;;2529508;23;20010;-78
2023/10/27 02:08:45;;;;;;;30.42;15.65;;;;;;;;;;2531431;23;20014;-77
2023/10/27 02:10:07;;;;;;;33.10;15.80;;;;;;;;;;2529956;23;20006;-77
2023/10/27 02:11:28;;;;;;;;;;;;;;;;;;2530673;23;20021;-77
2023/10/27 02:12:49;;;;;;;30.75;14.77;;;;;;;;;;2530579;23;19901;-78
2023/10/27 02:14:10;;;;;;;21.75;14.18;;;;;;;;;;2532204;23;20050;-77
2023/10/27 02:15:30;;;;;;;33.28;15.32;;;;;;;;;;2531170;23;20010;-75
2023/10/27 02:16:52;;;;;;;30.45;15.05;;;;;;;;;;2529445;23;20017;-78
2023/10/27 02:18:12;;;;;;;33.33;15.68;;;;;;;;;;2528747;23;20388;-78
2023/10/27 02:19:33;;;;;;;31.10;13.80;;;;;;;;;;2530227;23;20061;-77
2023/10/27 02:20:54;;;;;;;32.55;15.40;;;;;;;;;;2529411;23;20021;-78
2023/10/27 02:22:15;;;;;;;27.50;14.98;;;;;;;;;;2528272;23;20337;-77
2023/10/27 02:23:36;;;;;;;29.10;14.55;;;;;;;;;;2531016;23;20371;-76
2023/10/27 02:24:57;;;;;;;27.95;14.10;;;;;;;;;;2528915;23;20006;-76
2023/10/27 02:26:19;;;;;;;27.67;13.57;;;;;;;;;;2529182;23;20006;-76
2023/10/27 02:27:41;;;;;;;28.23;12.65;;;;;;;;;;2531783;23;20014;-77
2023/10/27 02:29:01;;;;;;;25.33;14.30;;;;;;;;;;2529299;23;20006;-75
2023/10/27 02:30:22;;;;;;;26.40;12.77;;;;;;;;;;2532701;23;20340;-77
2023/10/27 02:31:43;;;;;;;31.98;14.95;;;;;;;;;;2531319;23;20017;-78
2023/10/27 02:33:04;;;;;;;26.10;13.52;;;;;;;;;;2533352;23;20073;-77
2023/10/27 02:34:25;;;;;;;21.83;13.80;;;;;;;;;;2532596;23;20056;-77
2023/10/27 02:35:46;;;;;;;26.33;14.23;;;;;;;;;;2533537;23;20013;-78
2023/10/27 02:37:07;;;;;;;26.63;13.70;;;;;;;;;;2532147;23;20017;-77
2023/10/27 02:38:28;;;;;;;26.10;13.13;;;;;;;;;;2533752;23;20014;-78
2023/10/27 02:39:49;;;;;;;26.58;13.40;;;;;;;;;;2531787;23;20021;-78
2023/10/27 02:41:10;;;;;;;29.90;13.82;;;;;;;;;;2530794;23;20013;-75
2023/10/27 02:42:31;;;;;;;29.90;14.70;;;;;;;;;;2532034;23;20041;-75
2023/10/27 02:43:52;;;;;;;27.98;13.35;;;;;;;;;;2533006;23;20408;-76
2023/10/27 02:45:14;;;;;;;32.40;14.85;;;;;;;;;;2529104;23;20009;-76
2023/10/27 02:46:36;;;;;;;23.83;13.70;;;;;;;;;;2532376;23;20032;-79
2023/10/27 02:47:57;;;;;;;26.73;14.50;;;;;;;;;;2530656;23;20006;-77
2023/10/27 02:49:18;;;;;;;30.08;13.23;;;;;;;;;;2532438;23;20453;-77
2023/10/27 02:50:39;;;;;;;29.02;15.23;;;;;;;;;;2530167;23;20017;-78
2023/10/27 02:52:00;;;;;;;30.00;12.03;;;;;;;;;;2531375;23;20137;-77
2023/10/27 02:53:21;;;;;;;26.13;13.38;;;;;;;;;;2531874;23;20408;-75
2023/10/27 02:54:42;;;;;;;31.33;12.63;;;;;;;;;;2531868;23;20447;-79
2023/10/27 02:56:06;;;;;;;26.45;14.10;;;;;;;;;;2532019;23;20056;-75
2023/10/27 02:57:27;;;;;;;29.85;13.40;;;;;;;;;;2531457;23;20274;-75
2023/10/27 02:58:48;;;;;;;29.88;13.52;;;;;;;;;;2531039;23;20013;-78
2023/10/27 03:00:09;;;;;;;27.10;13.63;;;;;;;;;;2531022;23;20010;-77
2023/10/27 03:01:31;;;;;;;28.50;12.80;;;;;;;;;;2531240;23;20014;-76
2023/10/27 03:02:52;;;;;;;33.63;13.17;;;;;;;;;;2532581;23;20014;-77
2023/10/27 03:04:12;;;;;;;25.42;12.25;;;;;;;;;;2530715;23;20388;-75
2023/10/27 03:05:33;;;;;;;30.15;13.68;;;;;;;;;;2532744;23;20073;-77
2023/10/27 03:06:54;;;;;;;32.95;14.75;;;;;;;;;;2526928;23;20379;-76
2023/10/27 03:08:15;;;;;;;26.63;12.63;;;;;;;;;;2532799;23;20017;-78
2023/10/27 03:09:36;;;;;;;30.70;14.10;;;;;;;;;;2531551;23;20014;-77
2023/10/27 03:10:57;;;;;;;27.20;13.52;;;;;;;;;;2532050;23;20278;-76
2023/10/27 03:12:19;;;;;;;33.05;14.63;;;;;;;;;;2533143;23;20014;-79
2023/10/27 03:13:40;;;;;;;23.92;12.68;;;;;;;;;;2533537;23;20040;-77
2023/10/27 03:15:01;;;;;;;21.02;12.45;;;;;;;;;;2532790;23;20010;-77
2023/10/27 03:16:22;;;;;;;31.77;13.55;;;;;;;;;;2531763;23;20332;-76
2023/10/27 03:17:45;;;;;;;29.48;13.98;;;;;;;;;;2531097;23;20017;-79
2023/10/27 03:19:06;;;;;;;26.05;13.32;;;;;;;;;;2529216;23;20016;-79
2023/10/27 03:20:29;;;;;;;28.83;12.00;;;;;;;;;;2531333;23;20017;-77
2023/10/27 03:21:50;;;;;;;28.58;12.77;;;;;;;;;;2531590;23;20021;-75
2023/10/27 03:23:11;;;;;;;21.98;12.10;;;;;;;;;;2532882;23;20016;-77
2023/10/27 03:24:32;;;;;;;28.85;12.85;;;;;;;;;;2532542;23;20343;-76
2023/10/27 03:25:53;;;;;;;31.05;13.63;;;;;;;;;;2532645;23;20009;-79
2023/10/27 03:27:15;;;;;;;23.13;12.75;;;;;;;;;;2527447;23;20014;-77
2023/10/27 03:28:36;;;;;;;27.45;13.25;;;;;;;;;;2532098;23;20006;-78
2023/10/27 03:29:57;;;;;;;35.28;13.88;;;;;;;;;;2532141;23;20013;-78
2023/10/27 03:31:18;;;;;;;29.77;12.88;;;;;;;;;;2530486;23;20808;-77
2023/10/27 03:32:39;;;;;;;33.03;13.98;;;;;;;;;;2530497;23;20006;-79
2023/10/27 03:34:00;;;;;;;23.17;12.57;;;;;;;;;;2531323;23;20010;-78
2023/10/27 03:35:22;;;;;;;25.63;11.90;;;;;;;;;;2533104;23;20013;-79
2023/10/27 03:36:42;;;;;;;27.50;13.15;;;;;;;;;;2526686;23;20083;-78
2023/10/27 03:38:03;;;;;;;24.20;12.18;;;;;;;;;;2533141;23;20014;-78
2023/10/27 03:39:24;;;;;;;31.15;13.38;;;;;;;;;;2530866;23;20017;-80
2023/10/27 03:40:48;;;;;;;28.60;13.38;;;;;;;;;;2533333;23;20030;-77
2023/10/27 03:42:10;;;;;;;24.38;12.93;;;;;;;;;;2533193;23;20006;-76
2023/10/27 03:43:31;;;;;;;26.80;13.05;;;;;;;;;;2532235;23;20052;-76
2023/10/27 03:44:52;;;;;;;27.10;11.40;;;;;;;;;;2532061;23;20010;-78
2023/10/27 03:46:14;;;;;;;32.53;12.93;;;;;;;;;;2531495;23;20009;-75
2023/10/27 03:47:35;;;;;;;32.58;13.70;;;;;;;;;;2531909;23;20010;-78
2023/10/27 03:48:56;;;;;;;24.20;11.57;;;;;;;;;;2532945;23;20507;-77
2023/10/27 03:50:17;;;;;;;26.73;12.43;;;;;;;;;;2532482;23;20017;-75
2023/10/27 03:51:37;;;;;;;23.98;11.57;;;;;;;;;;2532376;23;20006;-75
2023/10/27 03:52:58;;;;;;;26.58;12.15;;;;;;;;;;2533002;23;20017;-77
2023/10/27 03:54:19;;;;;;;21.10;12.75;;;;;;;;;;2531603;23;20009;-78
2023/10/27 03:55:40;;;;;;;24.83;11.98;;;;;;;;;;2532001;23;20372;-77
2023/10/27 03:57:04;;;;;;;23.00;13.23;;;;;;;;;;2530853;23;20013;-76
2023/10/27 03:58:25;;;;;;;25.33;13.02;;;;;;;;;;2531703;23;20006;-77
2023/10/27 03:59:46;;;;;;;24.73;12.10;;;;;;;;;;2531408;23;20006;-74
2023/10/27 04:01:09;;;;;;;26.88;13.57;;;;;;;;;;2531511;23;20317;-76
2023/10/27 04:02:30;;;;;;;25.02;12.55;;;;;;;;;;2531492;23;20025;-75
2023/10/27 04:03:52;;;;;;;29.00;11.68;;;;;;;;;;2531892;23;20463;-75
2023/10/27 04:05:13;;;;;;;;;;;;;;;;;;2533158;23;20021;-75
2023/10/27 04:06:34;;;;;;;24.13;12.93;;;;;;;;;;2531413;23;19905;-77
2023/10/27 04:07:54;;;;;;;25.02;12.10;;;;;;;;;;2532135;23;20063;-76
2023/10/27 04:09:15;;;;;;;34.25;13.45;;;;;;;;;;2527989;23;20367;-78
2023/10/27 04:10:36;;;;;;;23.05;11.38;;;;;;;;;;2526866;23;20120;-78
2023/10/27 04:11:57;;;;;;;25.88;12.70;;;;;;;;;;2525027;23;20081;-77
2023/10/27 04:13:20;;;;;;;26.17;12.07;;;;;;;;;;2531482;23;20021;-77
2023/10/27 04:14:41;;;;;;;28.23;11.55;;;;;;;;;;2533473;23;20021;-77
2023/10/27 04:16:02;;;;;;;26.15;11.60;;;;;;;;;;2525359;23;20049;-78
2023/10/27 04:17:23;;;;;;;24.80;12.32;;;;;;;;;;2526799;23;20018;-74
2023/10/27 04:18:44;;;;;;;22.85;11.95;;;;;;;;;;2527091;23;20018;-77
2023/10/27 04:20:05;;;;;;;29.03;11.43;;;;;;;;;;2529326;23;20021;-76
2023/10/27 04:21:29;;;;;;;28.02;12.40;;;;;;;;;;2528020;23;20010;-77
2023/10/27 04:22:49;;;;;;;24.92;12.63;;;;;;;;;;2527598;23;20014;-75
2023/10/27 04:24:10;;;;;;;26.50;11.30;;;;;;;;;;2526927;23;20479;-75
2023/10/27 04:25:31;;;;;;;25.50;12.07;;;;;;;;;;2533399;23;20033;-77
2023/10/27 04:26:52;;;;;;;24.27;12.80;;;;;;;;;;2531528;23;20017;-77
2023/10/27 04:28:13;;;;;;;22.83;11.82;;;;;;;;;;2533097;23;20021;-79
2023/10/27 04:29:34;;;;;;;26.83;11.63;;;;;;;;;;2532849;23;20013;-75
2023/10/27 04:30:55;;;;;;;24.05;11.68;;;;;;;;;;2533964;23;20010;-79
2023/10/27 04:32:18;;;;;;;30.23;12.82;;;;;;;;;;2528890;23;20253;-79
2023/10/27 04:33:39;;;;;;;25.45;12.23;;;;;;;;;;2529429;23;20014;-76
2023/10/27 04:35:01;;;;;;;26.98;12.43;;;;;;;;;;2529615;23;20010;-79
2023/10/27 04:36:22;;;;;;;21.17;11.57;;;;;;;;;;2532014;23;20013;-77
2023/10/27 04:37:43;;;;;;;26.00;12.32;;;;;;;;;;2531575;23;20412;-78
2023/10/27 04:39:04;;;;;;;28.10;12.02;;;;;;;;;;2532752;23;20479;-77
2023/10/27 04:40:28;;;;;;;22.10;12.10;;;;;;;;;;2528335;23;20014;-78
2023/10/27 04:41:48;;;;;;;19.45;12.13;;;;;;;;;;2526617;23;20053;-76
2023/10/27 04:43:09;;;;;;;21.95;12.13;;;;;;;;;;2527841;23;20014;-76
2023/10/27 04:44:30;;;;;;;23.10;12.57;;;;;;;;;;2527327;23;20013;-75
2023/10/27 04:45:53;;;;;;;22.25;11.60;;;;;;;;;;2527319;23;20009;-79
2023/10/27 04:47:14;;;;;;;25.05;11.80;;;;;;;;;;2527883;23;20021;-76
2023/10/27 04:48:35;;;;;;;27.45;13.38;;;;;;;;;;2530536;23;20006;-76
2023/10/27 04:49:55;;;;;;;25.20;12.02;;;;;;;;;;2530822;23;20013;-77
2023/10/27 04:51:16;;;;;;;26.83;12.48;;;;;;;;;;2530912;23;20100;-79
2023/10/27 04:52:37;;;;;;;22.33;10.75;;;;;;;;;;2532349;23;20013;-77
2023/10/27 04:53:58;;;;;;;23.00;11.20;;;;;;;;;;2532722;23;20734;-76
2023/10/27 04:55:19;;;;;;;25.45;12.25;;;;;;;;;;2528036;23;20372;-77
2023/10/27 04:56:40;;;;;;;24.10;10.60;;;;;;;;;;2529681;23;20014;-77
2023/10/27 04:58:01;;;;;;;24.13;12.52;;;;;;;;;;2517106;23;20022;-77
2023/10/27 04:59:22;;;;;;;25.23;11.65;;;;;;;;;;2519273;23;20033;-77
2023/10/27 05:00:43;;;;;;;24.48;11.85;;;;;;;;;;2508769;23;20014;-76
2023/10/27 05:02:04;;;;;;;19.92;11.30;;;;;;;;;;2516411;23;20010;-77
2023/10/27 05:03:27;;;;;;;20.80;11.35;;;;;;;;;;2522325;23;20325;-75
2023/10/27 05:04:47;;;;;;;22.80;12.38;;;;;;;;;;2519172;23;20006;-77
2023/10/27 05:06:09;;;;;;;22.95;11.48;;;;;;;;;;2519861;23;20014;-77
2023/10/27 05:07:30;;;;;;;20.92;11.23;;;;;;;;;;2520802;23;20017;-77
2023/10/27 05:08:51;;;;;;;24.98;12.20;;;;;;;;;;2530891;23;20017;-76
2023/10/27 05:10:12;;;;;;;21.58;11.45;;;;;;;;;;2531936;23;19990;-80
2023/10/27 05:11:35;;;;;;;25.20;11.13;;;;;;;;;;2525360;23;20061;-78
2023/10/27 05:12:56;;;;;;;24.95;11.70;;;;;;;;;;2526388;23;20021;-79
2023/10/27 05:14:17;;;;;;;24.60;11.83;;;;;;;;;;2531795;23;20018;-78
2023/10/27 05:15:38;;;;;;;21.63;11.25;;;;;;;;;;2531508;23;20364;-77
2023/10/27 05:16:59;;;;;;;23.15;10.88;;;;;;;;;;2529319;23;20018;-77
2023/10/27 05:18:20;;;;;;;22.13;11.00;;;;;;;;;;2530537;23;20478;-77
2023/10/27 05:19:41;;;;;;;21.23;10.98;;;;;;;;;;2528964;23;20018;-78
2023/10/27 05:21:02;;;;;;;24.75;11.90;;;;;;;;;;2530351;23;20017;-77
2023/10/27 05:22:23;;;;;;;26.20;12.25;;;;;;;;;;2532611;23;20010;-77
2023/10/27 05:23:44;;;;;;;22.45;10.55;;;;;;;;;;2530284;23;20014;-80
2023/10/27 05:25:06;;;;;;;21.85;11.02;;;;;;;;;;2531622;23;20013;-77
2023/10/27 05:26:27;;;;;;;24.45;11.35;;;;;;;;;;2530065;23;20010;-79
2023/10/27 05:27:48;;;;;;;20.90;11.50;;;;;;;;;;2530432;23;20022;-76
2023/10/27 05:29:10;;;;;;;21.08;10.82;;;;;;;;;;2531841;23;20431;-77
2023/10/27 05:30:33;;;;;;;22.17;11.63;;;;;;;;;;2531922;23;20009;-77
2023/10/27 05:31:54;;;;;;;18.38;10.25;;;;;;;;;;2529309;23;20516;-78
2023/10/27 05:33:15;;;;;;;27.60;11.35;;;;;;;;;;2527988;23;19997;-79
2023/10/27 05:34:35;;;;;;;20.38;10.88;;;;;;;;;;2528094;23;20013;-75
2023/10/27 05:35:56;;;;;;;23.75;11.23;;;;;;;;;;2526478;23;20010;-77
2023/10/27 05:37:18;;;;;;;21.88;11.65;;;;;;;;;;2525965;23;20013;-78
2023/10/27 05:38:39;;;;;;;22.25;11.13;;;;;;;;;;2530988;23;20018;-79
2023/10/27 05:40:00;;;;;;;22.45;10.85;;;;;;;;;;2531928;23;20017;-75
2023/10/27 05:41:21;;;;;;;22.75;11.13;;;;;;;;;;2530183;23;20006;-77
2023/10/27 05:42:42;;;;;;;24.23;11.05;;;;;;;;;;2531949;23;20016;-77
2023/10/27 05:44:03;;;;;;;21.65;12.07;;;;;;;;;;2525782;23;20085;-79
2023/10/27 05:45:24;;;;;;;19.42;11.63;;;;;;;;;;2527000;23;20010;-75
2023/10/27 05:46:45;;;;;;;27.40;12.32;;;;;;;;;;2531228;23;20009;-76
2023/10/27 05:48:06;;;;;;;23.83;10.93;;;;;;;;;;2519039;23;20437;-77
2023/10/27 05:49:27;;;;;;;23.52;10.38;;;;;;;;;;2509402;23;20102;-77
2023/10/27 05:50:48;;;;;;;22.95;10.25;;;;;;;;;;2509295;23;20010;-77
2023/10/27 05:52:09;;;;;;;20.80;11.35;;;;;;;;;;2517275;23;20045;-78
2023/10/27 05:53:30;;;;;;;22.95;10.90;;;;;;;;;;2507002;23;20007;-78
2023/10/27 05:54:51;;;;;;;23.33;11.30;;;;;;;;;;2504337;23;20047;-79
2023/10/27 05:56:11;;;;;;;20.10;10.88;;;;;;;;;;2505602;23;20022;-76
2023/10/27 05:57:32;;;;;;;23.48;10.88;;;;;;;;;;2521020;23;20021;-76
2023/10/27 05:58:54;;;;;;;23.55;10.50;;;;;;;;;;2529717;23;20014;-75
2023/10/27 06:00:15;;;;;;;19.83;10.38;;;;;;;;;;2527246;23;20396;-76
2023/10/27 06:01:36;;;;;;;24.15;11.13;;;;;;;;;;2533077;23;20006;-77
2023/10/27 06:02:57;;;;;;;22.27;12.73;;;;;;;;;;2530388;23;20009;-77
2023/10/27 06:04:18;;;;;;;20.45;11.10;;;;;;;;;;2531634;23;20340;-79
2023/10/27 06:05:40;;;;;;;24.83;11.68;;;;;;;;;;2531786;23;20085;-77
2023/10/27 06:07:00;;;;;;;22.60;11.27;;;;;;;;;;2528897;23;20534;-78
2023/10/27 06:08:21;;;;;;;25.95;11.95;;;;;;;;;;2531621;23;20017;-79
2023/10/27 06:09:42;;;;;;;24.48;11.63;;;;;;;;;;2527796;23;20029;-75
2023/10/27 06:11:03;;;;;;;21.33;11.70;;;;;;;;;;2531720;23;20010;-75
2023/10/27 06:12:24;;;;;;;23.73;11.43;;;;;;;;;;2531939;23;20014;-79
2023/10/27 06:13:45;;;;;;;24.10;11.95;;;;;;;;;;2525498;23;20014;-79
2023/10/27 06:15:06;;;;;;;21.00;10.38;;;;;;;;;;2530550;23;20009;-77
2023/10/27 06:16:27;;;;;;;20.90;10.75;;;;;;;;;;2529899;23;20018;-77
2023/10/27 06:17:49;;;;;;;20.63;11.40;;;;;;;;;;2530174;23;20014;-78
2023/10/27 06:19:10;;;;;;;20.30;12.00;;;;;;;;;;2529271;23;20014;-77
2023/10/27 06:20:30;;;;;;;20.83;11.13;;;;;;;;;;2529106;23;20018;-79
2023/10/27 06:21:52;;;;;;;24.58;11.95;;;;;;;;;;2530807;23;20010;-79
2023/10/27 06:23:13;;;;;;;20.73;10.53;;;;;;;;;;2532399;23;20009;-79
2023/10/27 06:24:34;;;;;;;28.20;12.02;;;;;;;;;;2533167;23;20385;-79
2023/10/27 06:25:55;;;;;;;25.35;11.25;;;;;;;;;;2531237;23;20003;-77
2023/10/27 06:27:17;;;;;;;22.88;10.45;;;;;;;;;;2531848;23;20010;-77
2023/10/27 06:28:38;;;;;;;21.55;10.75;;;;;;;;;;2508992;23;20445;-77
2023/10/27 06:29:59;;;;;;;20.70;10.68;;;;;;;;;;2503003;23;20030;-77
2023/10/27 06:31:20;;;;;;;19.65;11.02;;;;;;;;;;2504059;23;20026;-77
2023/10/27 06:32:41;;;;;;;25.02;11.15;;;;;;;;;;2517184;23;20021;-75
2023/10/27 06:34:02;;;;;;;23.27;10.52;;;;;;;;;;2520752;23;20017;-75
2023/10/27 06:35:22;;;;;;;25.05;12.13;;;;;;;;;;2505261;23;20350;-79
2023/10/27 06:36:43;;;;;;;20.10;11.52;;;;;;;;;;2506377;23;20433;-79
2023/10/27 06:38:04;;;;;;;25.85;12.60;;;;;;;;;;2520264;23;20014;-78
2023/10/27 06:39:25;;;;;;;19.90;10.50;;;;;;;;;;2518267;23;20077;-78
2023/10/27 06:40:47;;;;;;;26.20;11.70;;;;;;;;;;2527412;23;20474;-79
2023/10/27 06:42:09;;;;;;;24.00;11.60;;;;;;;;;;2533909;23;20006;-79
2023/10/27 06:43:30;;;;;;;;;;;;;;;;;;2535197;23;20348;-75
2023/10/27 06:44:51;;;;;;;18.17;10.00;;;;;;;;;;2535188;23;19901;-75
2023/10/27 06:46:12;;;;;;;22.07;12.57;;;;;;;;;;2519592;23;20015;-75
2023/10/27 06:47:34;;;;;;;20.98;12.13;;;;;;;;;;2526483;23;20018;-76
2023/10/27 06:48:56;;;;;;;23.08;10.93;;;;;;;;;;2532648;23;20021;-76
2023/10/27 06:50:19;;;;;;;19.27;10.32;;;;;;;;;;2533095;23;20010;-76
2023/10/27 06:51:40;;;;;;;21.52;11.43;;;;;;;;;;2518854;23;20065;-76
2023/10/27 06:53:02;;;;;;;25.10;11.07;;;;;;;;;;2527965;23;20014;-75
2023/10/27 06:54:24;;;;;;;21.27;10.77;;;;;;;;;;2531713;23;20006;-75
2023/10/27 06:55:45;;;;;;;24.67;12.10;;;;;;;;;;2520224;23;20006;-75
2023/10/27 06:57:07;;;;;;;21.98;11.88;;;;;;;;;;2515477;23;20006;-75
2023/10/27 06:58:27;;;;;;;20.13;10.48;;;;;;;;;;2531509;23;20006;-76
2023/10/27 06:59:48;;;;;;;22.33;11.35;;;;;;;;;;2533312;23;20010;-76
2023/10/27 07:01:10;;;;;;;21.55;13.20;;;;;;;;;;2532559;23;20483;-76
2023/10/27 07:02:31;;;;;;;24.70;12.18;;;;;;;;;;2531937;23;20010;-76
2023/10/27 07:03:53;;;;;;;24.88;12.00;;;;;;;;;;2533804;23;20013;-76
2023/10/27 07:05:16;;;;;;;24.50;11.98;;;;;;;;;;2531922;23;20016;-78
2023/10/27 07:06:37;;;;;;;23.63;12.32;;;;;;;;;;2530427;23;20443;-77
2023/10/27 07:07:58;;;;;;;21.02;12.02;;;;;;;;;;2529495;23;20014;-77
2023/10/27 07:09:19;;;;;;;21.77;12.25;;;;;;;;;;2531148;23;20060;-77
2023/10/27 07:10:43;;;;;;;21.50;12.00;;;;;;;;;;2530333;23;20010;-77
2023/10/27 07:12:04;;;;;;;26.23;12.23;;;;;;;;;;2534216;23;20001;-77
2023/10/27 07:13:28;;;;;;;22.02;12.00;;;;;;;;;;2530605;23;20336;-77
2023/10/27 07:14:49;;;;;;;20.88;11.70;;;;;;;;;;2530982;23;20021;-78
2023/10/27 07:16:09;;;;;;;24.42;11.88;;;;;;;;;;2530480;23;20014;-77
2023/10/27 07:17:31;;;;;;;23.95;11.45;;;;;;;;;;2525950;23;20009;-77
2023/10/27 07:18:51;;;;;;;26.13;12.48;;;;;;;;;;2527210;23;20263;-77
2023/10/27 07:20:12;;;;;;;25.88;13.07;;;;;;;;;;2532312;23;20021;-77
2023/10/27 07:21:34;;;;;;;21.55;11.65;;;;;;;;;;2530936;23;20471;-78
2023/10/27 07:22:55;;;;;;;19.92;11.82;;;;;;;;;;2532349;23;20515;-77
2023/10/27 07:24:15;;;;;;;22.10;11.40;;;;;;;;;;2531111;23;20013;-77
2023/10/27 07:25:36;;;;;;;20.83;10.80;;;;;;;;;;2528077;23;20006;-77
2023/10/27 07:26:57;;;;;;;21.73;11.70;;;;;;;;;;2527122;23;20006;-77
2023/10/27 07:28:18;;;;;;;25.55;11.88;;;;;;;;;;2529811;23;20010;-78
2023/10/27 07:29:39;;;;;;;20.45;11.13;;;;;;;;;;2532238;23;20006;-77
2023/10/27 07:31:00;;;;;;;26.25;12.32;;;;;;;;;;2531608;23;20352;-77
2023/10/27 07:32:21;;;;;;;22.25;12.02;;;;;;;;;;2531879;23;20017;-77
2023/10/27 07:33:43;;;;;;;22.33;11.98;;;;;;;;;;2532539;23;20006;-78
2023/10/27 07:35:05;;;;;;;24.23;11.67;;;;;;;;;;2532533;23;20336;-77
2023/10/27 07:36:26;;;;;;;19.88;10.95;;;;;;;;;;2532303;23;20400;-78
2023/10/27 07:37:48;;;;;;;17.57;11.23;;;;;;;;;;2533976;23;20023;-77
2023/10/27 07:39:09;;;;;;;22.25;12.48;;;;;;;;;;2532421;23;20396;-77
2023/10/27 07:40:30;;;;;;;18.42;11.23;;;;;;;;;;2531741;23;20475;-77
2023/10/27 07:41:51;;;;;;;23.48;13.05;;;;;;;;;;2527418;23;20010;-77
2023/10/27 07:43:12;;;;;;;20.25;11.35;;;;;;;;;;2528632;23;20006;-77
2023/10/27 07:44:33;;;;;;;23.48;12.48;;;;;;;;;;2526479;23;20049;-77
2023/10/27 07:45:56;;;;;;;20.50;11.63;;;;;;;;;;2533493;23;20017;-77
2023/10/27 07:47:17;;;;;;;24.55;11.60;;;;;;;;;;2531937;23;20006;-77
2023/10/27 07:48:38;;;;;;;20.63;11.50;;;;;;;;;;2528713;23;20435;-77
2023/10/27 07:50:00;;;;;;;20.63;11.45;;;;;;;;;;2532156;23;20006;-77
2023/10/27 07:51:23;;;;;;;;;;;;;;;;;;2532917;23;20404;-77
2023/10/27 07:52:45;;;;;;;24.73;11.27;;;;;;;;;;2529347;23;19901;-77